Nearby METAR Reports

 

KOXC - Oxford/Waterbury, Connecticut, USA
Distance from station: SE 8mi, 12km
Updated: Thu, 21-Mar-2019 10:51pm EDT
Light rain, Overcast
Light rain, Overcast
 Wind from ENE
Wind: ENE 9 mph , 15 km/h
Temperature: 41°F , 5°C
Wind Chill: 35°F , 2°C
Dew Point: 37°F , 3°C
Humidity: 87%
Barometer: 29.74 inHg , 1007.1 hPa
Summary: Light rain
Clouds: Overcast
Visibility: 10 miles , 16 km
Cloud details: Mostly cloudy 2000 ft
Overcast 5000 ft
2019/03/22 02:51 KOXC 220251Z AUTO 07008KT 10SM -RA BKN020 OVC050 05/03 A2974 RMK AO2 RAB49 SLP087 P0000 60000 T00500028 58034
KDXR - Danbury, Connecticut, USA
Distance from station: SW 19mi, 30km
Updated: Thu, 21-Mar-2019 10:53pm EDT
Light rain, Overcast
Light rain, Overcast
 Wind from ENE
Wind: ENE 13 mph , 20 km/h
Temperature: 43°F , 6°C
Wind Chill: 36°F , 2°C
Dew Point: 36°F , 2°C
Humidity: 76%
Barometer: 29.72 inHg , 1006.4 hPa
Summary: Light rain
Clouds: Overcast
Visibility: 10 miles , 16 km
Cloud details: Overcast 2100 ft
2019/03/22 02:53 KDXR 220253Z AUTO 07011KT 10SM -RA OVC021 06/02 A2972 RMK AO2 RAB03E19B35 PRESFR SLP067 P0000 60000 T00610022 58042
 
KMMK - Meriden, Connecticut, USA
Distance from station: E 20mi, 33km
Updated: Thu, 21-Mar-2019 10:53pm EDT
Overcast
Overcast
 Wind from ENE
Wind: ENE 7 mph , 11 km/h
Temperature: 45°F , 7°C
Wind Chill: 41°F , 5°C
Dew Point: 36°F , 2°C
Humidity: 71%
Barometer: 29.77 inHg , 1008.1 hPa
Clouds: Overcast
Visibility: 10 miles , 16 km
Cloud details: Mostly cloudy 2500 ft
Overcast 6000 ft
2019/03/22 02:53 KMMK 220253Z AUTO 06006KT 10SM BKN025 OVC060 07/02 A2977 RMK AO2 RAB20E33 SLP080 P0000 60000 T00670022 56033
KBDR - Bridgeport, Connecticut, USA
Distance from station: S 27mi, 44km
Updated: Thu, 21-Mar-2019 10:52pm EDT
Light rain, Overcast
Light rain, Overcast
 Wind from ENE
Wind: ENE 18 mph , 30 km/h
Temperature: 43°F , 6°C
Wind Chill: 35°F , 2°C
Dew Point: 39°F , 4°C
Humidity: 87%
Barometer: 29.73 inHg , 1006.8 hPa
Summary: Light rain
Clouds: Overcast
Visibility: 10 miles , 16 km
Cloud details: Overcast 1200 ft
2019/03/22 02:52 KBDR 220252Z AUTO 07016KT 10SM -RA OVC012 06/04 A2973 RMK AO2 RAE01B19 SLP066 P0002 60002 T00610039 56030
 
KHVN - New Haven/Tweed, Connecticut, USA
Distance from station: SE 27mi, 44km
Updated: Thu, 21-Mar-2019 10:53pm EDT
Overcast
Overcast
 Wind from E
Wind: E 10 mph , 17 km/h, Gust: 20 mph , 31 km/h
Temperature: 48°F , 9°C
Wind Chill: 44°F , 7°C
Dew Point: 41°F , 5°C
Humidity: 76%
Barometer: 29.73 inHg , 1006.8 hPa
Clouds: Overcast
Visibility: 10 miles , 16 km
Cloud details: Overcast 1600 ft
2019/03/22 02:53 KHVN 220253Z AUTO 09009G17KT 10SM OVC016 09/05 A2973 RMK AO2 SLP067 T00890050 58043
KHFD - Hartford/Brainar, Connecticut, USA
Distance from station: ENE 32mi, 52km
Updated: Thu, 21-Mar-2019 10:53pm EDT
Overcast
Overcast
 Wind from E
Wind: E 5 mph , 7 km/h
Temperature: 45°F , 7°C
Wind Chill: 42°F , 6°C
Dew Point: 36°F , 2°C
Humidity: 71%
Barometer: 29.79 inHg , 1008.8 hPa
Clouds: Overcast
Visibility: 10 miles , 16 km
Cloud details: Overcast 6500 ft
2019/03/22 02:53 KHFD 220253Z 09004KT 10SM OVC065 07/02 A2979 RMK AO2 SLP087 T00670022 58031
 
KPOU - Poughkeepsie, New York, USA
Distance from station: W 35mi, 56km
Updated: Thu, 21-Mar-2019 10:53pm EDT
Overcast
Overcast
 Wind from NE
Wind: NE 8 mph , 13 km/h
Temperature: 45°F , 7°C
Wind Chill: 41°F , 5°C
Dew Point: 36°F , 2°C
Humidity: 71%
Barometer: 29.73 inHg , 1006.8 hPa
Clouds: Overcast
Visibility: 10 miles , 16 km
Cloud details: Few Clouds 2600 ft
Overcast 5500 ft
2019/03/22 02:53 KPOU 220253Z AUTO 05007KT 10SM FEW026 OVC055 07/02 A2973 RMK AO2 SLP064 T00670017 58035
KBDL - Windsor Locks, Connecticut, USA
Distance from station: NE 38mi, 62km
Updated: Thu, 21-Mar-2019 10:51pm EDT
Overcast
Overcast
 Wind from ENE
Wind: ENE 9 mph , 15 km/h
Temperature: 45°F , 7°C
Wind Chill: 40°F , 4°C
Dew Point: 36°F , 2°C
Humidity: 71%
Barometer: 29.79 inHg , 1008.8 hPa
Clouds: Overcast
Visibility: 10 miles , 16 km
Cloud details: Few Clouds 2300 ft
Mostly cloudy 7000 ft
Mostly cloudy 8500 ft
Overcast 13000 ft
2019/03/22 02:51 KBDL 220251Z 06008KT 10SM FEW023 BKN070 BKN085 OVC130 07/02 A2979 RMK AO2 SLP090 T00670017 58033
 
KSNC - Chester, Connecticut, USA
Distance from station: ESE 39mi, 63km
Updated: Thu, 21-Mar-2019 10:55pm EDT
Light, Overcast
Light, Overcast
 Wind from E
Wind: E 10 mph , 17 km/h
Temperature: 45°F , 7°C
Wind Chill: 40°F , 4°C
Dew Point: 39°F , 4°C
Humidity: 81%
Barometer: 29.75 inHg , 1007.5 hPa
Summary: Light
Clouds: Overcast
Visibility: 9 miles , 14 km
Cloud details: Overcast 1300 ft
2019/03/22 02:55 KSNC 220255Z AUTO 08009KT 9SM -UP OVC013 07/04 A2975 RMK AO2
KHPN - White Plains, New York, USA
Distance from station: SW 42mi, 67km
Updated: Thu, 21-Mar-2019 9:56pm EDT
Mostly cloudy
Mostly cloudy
 Wind from E
Wind: E 10 mph , 17 km/h, Gust: 25 mph , 41 km/h
Temperature: 41°F , 5°C
Wind Chill: 35°F , 2°C
Dew Point: 37°F , 3°C
Humidity: 87%
Barometer: 29.73 inHg , 1006.8 hPa
Clouds: Mostly cloudy
Visibility: 10 miles , 16 km
Cloud details: Mostly cloudy 1100 ft
2019/03/22 01:56 KHPN 220156Z 09009G22KT 10SM BKN011 05/03 A2973 RMK AO2 RAB39E56 SLP073 P0000 T00500033
 
KSWF - Newburgh/Stewart, New York, USA
Distance from station: W 45mi, 72km
Updated: Thu, 21-Mar-2019 10:45pm EDT
Overcast
Overcast
 Wind from ENE
Wind: ENE 8 mph , 13 km/h
Temperature: 43°F , 6°C
Wind Chill: 38°F , 3°C
Dew Point: 37°F , 3°C
Humidity: 81%
Barometer: 29.74 inHg , 1007.1 hPa
Clouds: Overcast
Visibility: 10 miles , 16 km
Cloud details: Partly cloudy 4000 ft
Overcast 6000 ft
2019/03/22 02:45 KSWF 220245Z 07007KT 10SM SCT040 OVC060 06/03 A2974
KBAF - Westfield, Massachusetts, USA
Distance from station: NNE 50mi, 80km
Updated: Thu, 21-Mar-2019 10:53pm EDT
Overcast
Overcast
 Wind from N
Wind: N 7 mph , 11 km/h
Temperature: 37°F , 3°C
Wind Chill: 32°F , 0°C
Dew Point: 34°F , 1°C
Humidity: 87%
Barometer: 29.81 inHg , 1009.5 hPa
Clouds: Overcast
Visibility: 10 miles , 16 km
Cloud details: Few Clouds 2600 ft
Overcast 10000 ft
2019/03/22 02:53 KBAF 220253Z AUTO 36006KT 10SM FEW026 OVC100 03/01 A2981 RMK AO2 SLP099 T00330006 56021 TSNO